sensor_id;sensor_type;location;lat;lon;timestamp;P1;durP1;ratioP1;P2;durP2;ratioP2
7162;SDS011;3623;47.098;15.446;2022-12-10T00:01:43;18.35;;;16.50;;
7162;SDS011;3623;47.098;15.446;2022-12-10T00:04:10;27.50;;;18.30;;
7162;SDS011;3623;47.098;15.446;2022-12-10T00:06:40;22.42;;;17.17;;
7162;SDS011;3623;47.098;15.446;2022-12-10T00:09:09;24.15;;;15.70;;
7162;SDS011;3623;47.098;15.446;2022-12-10T00:11:39;18.67;;;15.98;;
7162;SDS011;3623;47.098;15.446;2022-12-10T00:14:06;17.67;;;14.02;;
7162;SDS011;3623;47.098;15.446;2022-12-10T00:16:34;16.83;;;14.50;;
7162;SDS011;3623;47.098;15.446;2022-12-10T00:19:02;17.10;;;13.90;;
7162;SDS011;3623;47.098;15.446;2022-12-10T00:21:31;23.73;;;17.70;;
7162;SDS011;3623;47.098;15.446;2022-12-10T00:24:00;23.75;;;18.73;;
7162;SDS011;3623;47.098;15.446;2022-12-10T00:26:28;33.47;;;19.48;;
7162;SDS011;3623;47.098;15.446;2022-12-10T00:28:56;25.00;;;18.13;;
7162;SDS011;3623;47.098;15.446;2022-12-10T00:31:26;21.25;;;16.45;;
7162;SDS011;3623;47.098;15.446;2022-12-10T00:33:54;21.73;;;16.13;;
7162;SDS011;3623;47.098;15.446;2022-12-10T00:36:25;15.90;;;13.13;;
7162;SDS011;3623;47.098;15.446;2022-12-10T00:38:53;19.08;;;14.10;;
7162;SDS011;3623;47.098;15.446;2022-12-10T00:41:20;14.48;;;12.93;;
7162;SDS011;3623;47.098;15.446;2022-12-10T00:43:48;18.52;;;14.75;;
7162;SDS011;3623;47.098;15.446;2022-12-10T00:46:15;17.48;;;14.80;;
7162;SDS011;3623;47.098;15.446;2022-12-10T00:48:43;20.27;;;14.40;;
7162;SDS011;3623;47.098;15.446;2022-12-10T00:51:12;20.92;;;16.30;;
7162;SDS011;3623;47.098;15.446;2022-12-10T00:53:43;19.90;;;15.77;;
7162;SDS011;3623;47.098;15.446;2022-12-10T00:56:12;16.77;;;14.73;;
7162;SDS011;3623;47.098;15.446;2022-12-10T00:58:40;17.42;;;15.63;;
7162;SDS011;3623;47.098;15.446;2022-12-10T01:01:12;21.38;;;16.15;;
7162;SDS011;3623;47.098;15.446;2022-12-10T01:03:41;20.00;;;15.85;;
7162;SDS011;3623;47.098;15.446;2022-12-10T01:06:10;16.77;;;14.90;;
7162;SDS011;3623;47.098;15.446;2022-12-10T01:08:39;18.42;;;13.77;;
7162;SDS011;3623;47.098;15.446;2022-12-10T01:11:08;15.75;;;14.05;;
7162;SDS011;3623;47.098;15.446;2022-12-10T01:13:36;19.52;;;14.80;;
7162;SDS011;3623;47.098;15.446;2022-12-10T01:16:04;16.63;;;13.52;;
7162;SDS011;3623;47.098;15.446;2022-12-10T01:18:32;15.27;;;13.63;;
7162;SDS011;3623;47.098;15.446;2022-12-10T01:21:01;16.98;;;14.20;;
7162;SDS011;3623;47.098;15.446;2022-12-10T01:23:30;17.80;;;15.98;;
7162;SDS011;3623;47.098;15.446;2022-12-10T01:25:59;17.48;;;15.60;;
7162;SDS011;3623;47.098;15.446;2022-12-10T01:28:32;21.05;;;17.35;;
7162;SDS011;3623;47.098;15.446;2022-12-10T01:31:01;21.75;;;17.55;;
7162;SDS011;3623;47.098;15.446;2022-12-10T01:33:29;25.85;;;17.83;;
7162;SDS011;3623;47.098;15.446;2022-12-10T01:35:56;21.88;;;16.55;;
7162;SDS011;3623;47.098;15.446;2022-12-10T01:38:27;22.33;;;17.90;;
7162;SDS011;3623;47.098;15.446;2022-12-10T01:40:54;19.85;;;16.98;;
7162;SDS011;3623;47.098;15.446;2022-12-10T01:43:21;84.88;;;21.13;;
7162;SDS011;3623;47.098;15.446;2022-12-10T01:45:50;27.90;;;14.68;;
7162;SDS011;3623;47.098;15.446;2022-12-10T01:48:17;17.42;;;15.55;;
7162;SDS011;3623;47.098;15.446;2022-12-10T01:50:44;16.98;;;14.80;;
7162;SDS011;3623;47.098;15.446;2022-12-10T01:53:12;18.83;;;14.93;;
7162;SDS011;3623;47.098;15.446;2022-12-10T01:55:42;20.15;;;15.55;;
7162;SDS011;3623;47.098;15.446;2022-12-10T01:58:13;14.18;;;12.80;;
7162;SDS011;3623;47.098;15.446;2022-12-10T02:00:43;17.75;;;15.20;;
7162;SDS011;3623;47.098;15.446;2022-12-10T02:03:19;15.82;;;14.13;;
7162;SDS011;3623;47.098;15.446;2022-12-10T02:05:53;21.83;;;14.93;;
7162;SDS011;3623;47.098;15.446;2022-12-10T02:08:27;24.13;;;17.55;;
7162;SDS011;3623;47.098;15.446;2022-12-10T02:11:06;20.10;;;15.60;;
7162;SDS011;3623;47.098;15.446;2022-12-10T02:13:42;17.58;;;15.27;;
7162;SDS011;3623;47.098;15.446;2022-12-10T02:16:12;18.20;;;15.68;;
7162;SDS011;3623;47.098;15.446;2022-12-10T02:18:45;19.98;;;15.63;;
7162;SDS011;3623;47.098;15.446;2022-12-10T02:21:18;17.15;;;14.98;;
7162;SDS011;3623;47.098;15.446;2022-12-10T02:23:50;15.18;;;13.55;;
7162;SDS011;3623;47.098;15.446;2022-12-10T02:26:22;15.63;;;14.02;;
7162;SDS011;3623;47.098;15.446;2022-12-10T02:29:01;17.50;;;14.00;;
7162;SDS011;3623;47.098;15.446;2022-12-10T02:31:37;18.17;;;16.17;;
7162;SDS011;3623;47.098;15.446;2022-12-10T02:34:08;19.40;;;15.35;;
7162;SDS011;3623;47.098;15.446;2022-12-10T02:36:37;22.60;;;16.20;;
7162;SDS011;3623;47.098;15.446;2022-12-10T02:39:10;18.27;;;15.77;;
7162;SDS011;3623;47.098;15.446;2022-12-10T02:41:41;16.30;;;14.60;;
7162;SDS011;3623;47.098;15.446;2022-12-10T02:44:13;26.88;;;16.67;;
7162;SDS011;3623;47.098;15.446;2022-12-10T02:46:43;17.98;;;15.80;;
7162;SDS011;3623;47.098;15.446;2022-12-10T02:49:13;20.23;;;16.10;;
7162;SDS011;3623;47.098;15.446;2022-12-10T02:51:42;17.85;;;15.02;;
7162;SDS011;3623;47.098;15.446;2022-12-10T02:57:04;23.27;;;15.15;;
7162;SDS011;3623;47.098;15.446;2022-12-10T02:59:43;20.13;;;16.38;;
7162;SDS011;3623;47.098;15.446;2022-12-10T03:02:24;16.45;;;14.77;;
7162;SDS011;3623;47.098;15.446;2022-12-10T03:05:00;17.65;;;14.20;;
7162;SDS011;3623;47.098;15.446;2022-12-10T03:07:33;20.13;;;16.83;;
7162;SDS011;3623;47.098;15.446;2022-12-10T03:10:07;18.85;;;14.88;;
7162;SDS011;3623;47.098;15.446;2022-12-10T03:12:39;21.33;;;16.67;;
7162;SDS011;3623;47.098;15.446;2022-12-10T03:15:12;19.90;;;15.85;;
7162;SDS011;3623;47.098;15.446;2022-12-10T03:17:41;17.38;;;15.00;;
7162;SDS011;3623;47.098;15.446;2022-12-10T03:20:11;20.60;;;15.75;;
7162;SDS011;3623;47.098;15.446;2022-12-10T03:22:42;22.13;;;17.20;;
7162;SDS011;3623;47.098;15.446;2022-12-10T03:25:12;17.00;;;15.20;;
7162;SDS011;3623;47.098;15.446;2022-12-10T03:27:43;18.52;;;14.55;;
7162;SDS011;3623;47.098;15.446;2022-12-10T03:30:14;16.85;;;15.05;;
7162;SDS011;3623;47.098;15.446;2022-12-10T03:32:41;19.98;;;15.13;;
7162;SDS011;3623;47.098;15.446;2022-12-10T03:35:10;17.75;;;15.23;;
7162;SDS011;3623;47.098;15.446;2022-12-10T03:37:38;18.85;;;15.70;;
7162;SDS011;3623;47.098;15.446;2022-12-10T03:40:07;21.17;;;15.57;;
7162;SDS011;3623;47.098;15.446;2022-12-10T03:42:36;23.10;;;17.13;;
7162;SDS011;3623;47.098;15.446;2022-12-10T03:45:04;17.08;;;14.73;;
7162;SDS011;3623;47.098;15.446;2022-12-10T03:47:34;21.98;;;15.38;;
7162;SDS011;3623;47.098;15.446;2022-12-10T03:50:01;17.65;;;14.80;;
7162;SDS011;3623;47.098;15.446;2022-12-10T03:52:28;18.90;;;15.43;;
7162;SDS011;3623;47.098;15.446;2022-12-10T03:54:56;19.67;;;15.52;;
7162;SDS011;3623;47.098;15.446;2022-12-10T03:57:23;20.02;;;15.38;;
7162;SDS011;3623;47.098;15.446;2022-12-10T03:59:50;18.60;;;14.52;;
7162;SDS011;3623;47.098;15.446;2022-12-10T04:02:17;17.83;;;14.50;;
7162;SDS011;3623;47.098;15.446;2022-12-10T04:04:45;19.70;;;15.52;;
7162;SDS011;3623;47.098;15.446;2022-12-10T04:07:13;17.85;;;15.15;;
7162;SDS011;3623;47.098;15.446;2022-12-10T04:09:40;20.35;;;15.50;;
7162;SDS011;3623;47.098;15.446;2022-12-10T04:12:07;19.48;;;14.88;;
7162;SDS011;3623;47.098;15.446;2022-12-10T04:14:34;20.98;;;14.68;;
7162;SDS011;3623;47.098;15.446;2022-12-10T04:17:19;18.50;;;15.18;;
7162;SDS011;3623;47.098;15.446;2022-12-10T04:19:47;18.08;;;15.25;;
7162;SDS011;3623;47.098;15.446;2022-12-10T04:22:14;21.52;;;15.60;;
7162;SDS011;3623;47.098;15.446;2022-12-10T04:24:59;19.45;;;15.30;;
7162;SDS011;3623;47.098;15.446;2022-12-10T04:27:48;15.90;;;14.25;;
7162;SDS011;3623;47.098;15.446;2022-12-10T04:30:16;18.48;;;13.02;;
7162;SDS011;3623;47.098;15.446;2022-12-10T04:32:43;17.13;;;15.43;;
7162;SDS011;3623;47.098;15.446;2022-12-10T04:35:11;16.33;;;14.73;;
7162;SDS011;3623;47.098;15.446;2022-12-10T04:37:38;95.18;;;26.80;;
7162;SDS011;3623;47.098;15.446;2022-12-10T04:40:06;28.00;;;17.80;;
7162;SDS011;3623;47.098;15.446;2022-12-10T04:42:34;85.90;;;23.48;;
7162;SDS011;3623;47.098;15.446;2022-12-10T04:45:01;62.30;;;20.02;;
7162;SDS011;3623;47.098;15.446;2022-12-10T04:47:28;23.25;;;16.40;;
7162;SDS011;3623;47.098;15.446;2022-12-10T04:49:55;17.88;;;15.98;;
7162;SDS011;3623;47.098;15.446;2022-12-10T04:52:24;22.17;;;15.55;;
7162;SDS011;3623;47.098;15.446;2022-12-10T04:54:51;20.23;;;15.52;;
7162;SDS011;3623;47.098;15.446;2022-12-10T04:57:18;16.63;;;14.82;;
7162;SDS011;3623;47.098;15.446;2022-12-10T04:59:45;25.63;;;14.45;;
7162;SDS011;3623;47.098;15.446;2022-12-10T05:02:12;66.25;;;18.58;;
7162;SDS011;3623;47.098;15.446;2022-12-10T05:04:39;61.60;;;16.65;;
7162;SDS011;3623;47.098;15.446;2022-12-10T05:07:06;27.90;;;15.48;;
7162;SDS011;3623;47.098;15.446;2022-12-10T05:09:35;15.93;;;14.32;;
7162;SDS011;3623;47.098;15.446;2022-12-10T05:12:03;14.38;;;12.88;;
7162;SDS011;3623;47.098;15.446;2022-12-10T05:14:31;18.05;;;16.17;;
7162;SDS011;3623;47.098;15.446;2022-12-10T05:16:58;18.80;;;14.98;;
7162;SDS011;3623;47.098;15.446;2022-12-10T05:19:25;17.50;;;14.55;;
7162;SDS011;3623;47.098;15.446;2022-12-10T05:21:52;16.75;;;14.52;;
7162;SDS011;3623;47.098;15.446;2022-12-10T05:24:38;16.23;;;14.68;;
7162;SDS011;3623;47.098;15.446;2022-12-10T05:27:05;15.52;;;13.93;;
7162;SDS011;3623;47.098;15.446;2022-12-10T05:29:32;17.95;;;15.15;;
7162;SDS011;3623;47.098;15.446;2022-12-10T05:32:00;14.85;;;13.05;;
7162;SDS011;3623;47.098;15.446;2022-12-10T05:34:28;18.80;;;14.55;;
7162;SDS011;3623;47.098;15.446;2022-12-10T05:36:56;20.13;;;14.38;;
7162;SDS011;3623;47.098;15.446;2022-12-10T05:39:23;16.65;;;14.98;;
7162;SDS011;3623;47.098;15.446;2022-12-10T05:41:51;20.20;;;15.57;;
7162;SDS011;3623;47.098;15.446;2022-12-10T05:44:18;19.88;;;15.77;;
7162;SDS011;3623;47.098;15.446;2022-12-10T05:46:45;25.17;;;18.52;;
7162;SDS011;3623;47.098;15.446;2022-12-10T05:49:13;17.35;;;15.50;;
7162;SDS011;3623;47.098;15.446;2022-12-10T05:51:42;28.38;;;18.27;;
7162;SDS011;3623;47.098;15.446;2022-12-10T05:54:09;35.10;;;17.58;;
7162;SDS011;3623;47.098;15.446;2022-12-10T05:56:36;189.65;;;31.88;;
7162;SDS011;3623;47.098;15.446;2022-12-10T05:59:05;19.08;;;14.35;;
7162;SDS011;3623;47.098;15.446;2022-12-10T06:01:33;26.77;;;14.80;;
7162;SDS011;3623;47.098;15.446;2022-12-10T06:04:02;14.02;;;12.50;;
7162;SDS011;3623;47.098;15.446;2022-12-10T06:06:32;25.65;;;14.75;;
7162;SDS011;3623;47.098;15.446;2022-12-10T06:09:00;28.23;;;16.75;;
7162;SDS011;3623;47.098;15.446;2022-12-10T06:11:28;20.80;;;13.48;;
7162;SDS011;3623;47.098;15.446;2022-12-10T06:13:55;17.65;;;14.23;;
7162;SDS011;3623;47.098;15.446;2022-12-10T06:16:26;20.00;;;14.98;;
7162;SDS011;3623;47.098;15.446;2022-12-10T06:18:54;37.65;;;15.88;;
7162;SDS011;3623;47.098;15.446;2022-12-10T06:21:22;16.00;;;13.80;;
7162;SDS011;3623;47.098;15.446;2022-12-10T06:23:50;17.77;;;14.00;;
7162;SDS011;3623;47.098;15.446;2022-12-10T06:26:18;19.15;;;14.90;;
7162;SDS011;3623;47.098;15.446;2022-12-10T06:28:47;19.83;;;15.20;;
7162;SDS011;3623;47.098;15.446;2022-12-10T06:31:15;17.60;;;13.98;;
7162;SDS011;3623;47.098;15.446;2022-12-10T06:33:44;16.48;;;13.80;;
7162;SDS011;3623;47.098;15.446;2022-12-10T06:36:12;18.42;;;13.85;;
7162;SDS011;3623;47.098;15.446;2022-12-10T06:38:41;19.67;;;13.73;;
7162;SDS011;3623;47.098;15.446;2022-12-10T06:41:09;302.58;;;42.33;;
7162;SDS011;3623;47.098;15.446;2022-12-10T06:43:38;24.10;;;15.18;;
7162;SDS011;3623;47.098;15.446;2022-12-10T06:46:05;19.80;;;14.73;;
7162;SDS011;3623;47.098;15.446;2022-12-10T06:48:33;24.00;;;16.00;;
7162;SDS011;3623;47.098;15.446;2022-12-10T06:51:02;18.90;;;15.50;;
7162;SDS011;3623;47.098;15.446;2022-12-10T06:53:30;23.10;;;15.80;;
7162;SDS011;3623;47.098;15.446;2022-12-10T06:55:58;18.92;;;13.50;;
7162;SDS011;3623;47.098;15.446;2022-12-10T06:58:26;49.95;;;17.90;;
7162;SDS011;3623;47.098;15.446;2022-12-10T07:00:54;52.22;;;18.02;;
7162;SDS011;3623;47.098;15.446;2022-12-10T07:03:29;19.30;;;15.00;;
7162;SDS011;3623;47.098;15.446;2022-12-10T07:05:56;31.55;;;14.77;;
7162;SDS011;3623;47.098;15.446;2022-12-10T07:08:25;51.80;;;16.42;;
7162;SDS011;3623;47.098;15.446;2022-12-10T07:10:53;94.93;;;20.67;;
7162;SDS011;3623;47.098;15.446;2022-12-10T07:13:20;338.15;;;38.17;;
7162;SDS011;3623;47.098;15.446;2022-12-10T07:15:47;245.07;;;31.42;;
7162;SDS011;3623;47.098;15.446;2022-12-10T07:18:15;74.20;;;17.48;;
7162;SDS011;3623;47.098;15.446;2022-12-10T07:20:43;107.75;;;19.70;;
7162;SDS011;3623;47.098;15.446;2022-12-10T07:23:10;85.38;;;21.80;;
7162;SDS011;3623;47.098;15.446;2022-12-10T07:25:38;424.58;;;51.28;;
7162;SDS011;3623;47.098;15.446;2022-12-10T07:28:05;125.20;;;21.65;;
7162;SDS011;3623;47.098;15.446;2022-12-10T07:30:32;40.17;;;16.65;;
7162;SDS011;3623;47.098;15.446;2022-12-10T07:33:00;57.25;;;18.90;;
7162;SDS011;3623;47.098;15.446;2022-12-10T07:35:27;57.63;;;18.77;;
7162;SDS011;3623;47.098;15.446;2022-12-10T07:37:54;41.78;;;17.90;;
7162;SDS011;3623;47.098;15.446;2022-12-10T07:40:21;19.90;;;15.57;;
7162;SDS011;3623;47.098;15.446;2022-12-10T07:42:50;42.25;;;19.50;;
7162;SDS011;3623;47.098;15.446;2022-12-10T07:45:17;23.95;;;17.50;;
7162;SDS011;3623;47.098;15.446;2022-12-10T07:47:44;30.88;;;18.80;;
7162;SDS011;3623;47.098;15.446;2022-12-10T07:50:13;32.10;;;18.50;;
7162;SDS011;3623;47.098;15.446;2022-12-10T07:52:40;23.50;;;17.95;;
7162;SDS011;3623;47.098;15.446;2022-12-10T07:55:07;42.17;;;22.08;;
7162;SDS011;3623;47.098;15.446;2022-12-10T07:57:35;155.77;;;31.90;;
7162;SDS011;3623;47.098;15.446;2022-12-10T08:00:06;21.30;;;16.55;;
7162;SDS011;3623;47.098;15.446;2022-12-10T08:02:34;30.23;;;19.02;;
7162;SDS011;3623;47.098;15.446;2022-12-10T08:05:02;68.15;;;22.33;;
7162;SDS011;3623;47.098;15.446;2022-12-10T08:07:29;58.58;;;22.48;;
7162;SDS011;3623;47.098;15.446;2022-12-10T08:09:56;78.10;;;24.08;;
7162;SDS011;3623;47.098;15.446;2022-12-10T08:12:24;281.55;;;40.50;;
7162;SDS011;3623;47.098;15.446;2022-12-10T08:14:51;197.52;;;35.42;;
7162;SDS011;3623;47.098;15.446;2022-12-10T08:17:20;116.78;;;23.42;;
7162;SDS011;3623;47.098;15.446;2022-12-10T08:19:47;166.02;;;30.85;;
7162;SDS011;3623;47.098;15.446;2022-12-10T08:22:16;65.47;;;21.58;;
7162;SDS011;3623;47.098;15.446;2022-12-10T08:24:43;211.13;;;39.10;;
7162;SDS011;3623;47.098;15.446;2022-12-10T08:27:11;204.45;;;31.08;;
7162;SDS011;3623;47.098;15.446;2022-12-10T08:29:38;77.82;;;19.75;;
7162;SDS011;3623;47.098;15.446;2022-12-10T08:32:06;21.10;;;14.93;;
7162;SDS011;3623;47.098;15.446;2022-12-10T08:34:35;67.13;;;17.52;;
7162;SDS011;3623;47.098;15.446;2022-12-10T08:37:03;128.15;;;21.77;;
7162;SDS011;3623;47.098;15.446;2022-12-10T08:39:30;152.77;;;31.20;;
7162;SDS011;3623;47.098;15.446;2022-12-10T08:41:59;127.95;;;30.58;;
7162;SDS011;3623;47.098;15.446;2022-12-10T08:44:26;326.58;;;41.55;;
7162;SDS011;3623;47.098;15.446;2022-12-10T08:46:53;520.22;;;59.25;;
7162;SDS011;3623;47.098;15.446;2022-12-10T08:49:21;130.35;;;23.27;;
7162;SDS011;3623;47.098;15.446;2022-12-10T08:51:50;214.63;;;35.70;;
7162;SDS011;3623;47.098;15.446;2022-12-10T08:54:17;155.18;;;27.52;;
7162;SDS011;3623;47.098;15.446;2022-12-10T08:56:44;112.07;;;22.65;;
7162;SDS011;3623;47.098;15.446;2022-12-10T08:59:12;57.63;;;19.33;;
7162;SDS011;3623;47.098;15.446;2022-12-10T09:04:31;88.30;;;18.70;;
7162;SDS011;3623;47.098;15.446;2022-12-10T09:07:00;45.63;;;18.70;;
7162;SDS011;3623;47.098;15.446;2022-12-10T09:09:28;60.78;;;18.20;;
7162;SDS011;3623;47.098;15.446;2022-12-10T09:11:55;48.13;;;15.57;;
7162;SDS011;3623;47.098;15.446;2022-12-10T09:14:22;58.90;;;16.80;;
7162;SDS011;3623;47.098;15.446;2022-12-10T09:16:49;74.72;;;16.25;;
7162;SDS011;3623;47.098;15.446;2022-12-10T09:19:17;17.45;;;12.20;;
7162;SDS011;3623;47.098;15.446;2022-12-10T09:21:46;24.70;;;11.23;;
7162;SDS011;3623;47.098;15.446;2022-12-10T09:24:14;21.08;;;13.02;;
7162;SDS011;3623;47.098;15.446;2022-12-10T09:26:41;15.35;;;12.35;;
7162;SDS011;3623;47.098;15.446;2022-12-10T09:29:09;29.10;;;13.65;;
7162;SDS011;3623;47.098;15.446;2022-12-10T09:31:45;18.20;;;10.43;;
7162;SDS011;3623;47.098;15.446;2022-12-10T09:34:16;23.23;;;11.35;;
7162;SDS011;3623;47.098;15.446;2022-12-10T09:36:43;21.02;;;12.52;;
7162;SDS011;3623;47.098;15.446;2022-12-10T09:39:10;26.52;;;14.02;;
7162;SDS011;3623;47.098;15.446;2022-12-10T09:41:47;28.35;;;13.82;;
7162;SDS011;3623;47.098;15.446;2022-12-10T09:44:26;123.70;;;20.23;;
7162;SDS011;3623;47.098;15.446;2022-12-10T09:47:03;146.95;;;25.15;;
7162;SDS011;3623;47.098;15.446;2022-12-10T09:49:37;68.20;;;16.92;;
7162;SDS011;3623;47.098;15.446;2022-12-10T09:52:17;68.72;;;15.88;;
7162;SDS011;3623;47.098;15.446;2022-12-10T09:54:48;23.63;;;13.48;;
7162;SDS011;3623;47.098;15.446;2022-12-10T09:57:21;102.05;;;21.08;;
7162;SDS011;3623;47.098;15.446;2022-12-10T09:59:52;176.73;;;26.77;;
7162;SDS011;3623;47.098;15.446;2022-12-10T10:02:22;71.47;;;16.92;;
7162;SDS011;3623;47.098;15.446;2022-12-10T10:04:54;49.10;;;15.30;;
7162;SDS011;3623;47.098;15.446;2022-12-10T10:07:25;13.38;;;9.85;;
7162;SDS011;3623;47.098;15.446;2022-12-10T10:09:56;16.63;;;11.05;;
7162;SDS011;3623;47.098;15.446;2022-12-10T10:12:28;43.33;;;13.52;;
7162;SDS011;3623;47.098;15.446;2022-12-10T10:14:58;34.78;;;13.43;;
7162;SDS011;3623;47.098;15.446;2022-12-10T10:17:36;15.80;;;11.40;;
7162;SDS011;3623;47.098;15.446;2022-12-10T10:20:04;37.83;;;15.23;;
7162;SDS011;3623;47.098;15.446;2022-12-10T10:22:33;84.07;;;19.40;;
7162;SDS011;3623;47.098;15.446;2022-12-10T10:25:00;18.40;;;11.80;;
7162;SDS011;3623;47.098;15.446;2022-12-10T10:27:30;13.15;;;11.38;;
7162;SDS011;3623;47.098;15.446;2022-12-10T10:29:59;16.08;;;11.70;;
7162;SDS011;3623;47.098;15.446;2022-12-10T10:32:43;15.57;;;12.07;;
7162;SDS011;3623;47.098;15.446;2022-12-10T10:35:19;13.45;;;10.77;;
7162;SDS011;3623;47.098;15.446;2022-12-10T10:37:48;12.93;;;9.40;;
7162;SDS011;3623;47.098;15.446;2022-12-10T10:40:21;13.65;;;10.10;;
7162;SDS011;3623;47.098;15.446;2022-12-10T10:42:51;11.70;;;9.60;;
7162;SDS011;3623;47.098;15.446;2022-12-10T10:45:32;13.52;;;9.85;;
7162;SDS011;3623;47.098;15.446;2022-12-10T10:48:05;15.75;;;11.68;;
7162;SDS011;3623;47.098;15.446;2022-12-10T10:50:37;10.20;;;8.98;;
7162;SDS011;3623;47.098;15.446;2022-12-10T10:53:19;11.52;;;8.85;;
7162;SDS011;3623;47.098;15.446;2022-12-10T10:55:48;9.77;;;8.43;;
7162;SDS011;3623;47.098;15.446;2022-12-10T10:58:18;10.88;;;9.48;;
7162;SDS011;3623;47.098;15.446;2022-12-10T11:00:53;10.65;;;9.45;;
7162;SDS011;3623;47.098;15.446;2022-12-10T11:03:25;13.10;;;8.75;;
7162;SDS011;3623;47.098;15.446;2022-12-10T11:05:54;12.88;;;9.48;;
7162;SDS011;3623;47.098;15.446;2022-12-10T11:08:23;9.35;;;8.35;;
7162;SDS011;3623;47.098;15.446;2022-12-10T11:10:56;9.23;;;8.20;;
7162;SDS011;3623;47.098;15.446;2022-12-10T11:13:30;11.77;;;9.90;;
7162;SDS011;3623;47.098;15.446;2022-12-10T11:16:00;16.35;;;10.40;;
7162;SDS011;3623;47.098;15.446;2022-12-10T11:18:35;10.05;;;9.02;;
7162;SDS011;3623;47.098;15.446;2022-12-10T11:21:05;11.85;;;8.65;;
7162;SDS011;3623;47.098;15.446;2022-12-10T11:23:42;27.35;;;11.55;;
7162;SDS011;3623;47.098;15.446;2022-12-10T11:26:16;11.05;;;9.50;;
7162;SDS011;3623;47.098;15.446;2022-12-10T11:28:54;11.05;;;9.95;;
7162;SDS011;3623;47.098;15.446;2022-12-10T11:31:34;9.32;;;8.43;;
7162;SDS011;3623;47.098;15.446;2022-12-10T11:34:13;17.35;;;9.75;;
7162;SDS011;3623;47.098;15.446;2022-12-10T11:36:46;10.88;;;8.75;;
7162;SDS011;3623;47.098;15.446;2022-12-10T11:39:28;10.68;;;7.90;;
7162;SDS011;3623;47.098;15.446;2022-12-10T11:42:13;13.30;;;8.35;;
7162;SDS011;3623;47.098;15.446;2022-12-10T11:44:54;9.23;;;8.27;;
7162;SDS011;3623;47.098;15.446;2022-12-10T11:47:30;8.02;;;7.22;;
7162;SDS011;3623;47.098;15.446;2022-12-10T11:50:14;8.63;;;7.65;;
7162;SDS011;3623;47.098;15.446;2022-12-10T11:55:45;9.55;;;8.10;;
7162;SDS011;3623;47.098;15.446;2022-12-10T12:01:12;10.10;;;9.30;;
7162;SDS011;3623;47.098;15.446;2022-12-10T12:03:55;11.07;;;8.68;;
7162;SDS011;3623;47.098;15.446;2022-12-10T12:06:44;10.40;;;9.10;;
7162;SDS011;3623;47.098;15.446;2022-12-10T12:09:24;10.02;;;9.05;;
7162;SDS011;3623;47.098;15.446;2022-12-10T12:12:02;8.68;;;7.93;;
7162;SDS011;3623;47.098;15.446;2022-12-10T12:14:39;10.80;;;9.43;;
7162;SDS011;3623;47.098;15.446;2022-12-10T12:17:12;17.23;;;8.73;;
7162;SDS011;3623;47.098;15.446;2022-12-10T12:19:44;22.83;;;9.77;;
7162;SDS011;3623;47.098;15.446;2022-12-10T12:22:16;16.42;;;10.65;;
7162;SDS011;3623;47.098;15.446;2022-12-10T12:24:50;170.68;;;25.23;;
7162;SDS011;3623;47.098;15.446;2022-12-10T12:27:22;11.25;;;10.13;;
7162;SDS011;3623;47.098;15.446;2022-12-10T12:29:57;15.15;;;9.50;;
7162;SDS011;3623;47.098;15.446;2022-12-10T12:32:35;16.77;;;9.82;;
7162;SDS011;3623;47.098;15.446;2022-12-10T12:35:10;12.25;;;10.95;;
7162;SDS011;3623;47.098;15.446;2022-12-10T12:37:45;23.92;;;12.20;;
7162;SDS011;3623;47.098;15.446;2022-12-10T12:40:23;12.38;;;9.60;;
7162;SDS011;3623;47.098;15.446;2022-12-10T12:42:55;9.40;;;8.32;;
7162;SDS011;3623;47.098;15.446;2022-12-10T12:45:31;12.68;;;9.85;;
7162;SDS011;3623;47.098;15.446;2022-12-10T12:48:09;12.93;;;9.63;;
7162;SDS011;3623;47.098;15.446;2022-12-10T12:50:45;60.30;;;16.88;;
7162;SDS011;3623;47.098;15.446;2022-12-10T12:53:15;7.35;;;6.65;;
7162;SDS011;3623;47.098;15.446;2022-12-10T12:55:45;7.03;;;6.32;;
7162;SDS011;3623;47.098;15.446;2022-12-10T12:58:22;6.47;;;5.72;;
7162;SDS011;3623;47.098;15.446;2022-12-10T13:00:57;7.38;;;6.68;;
7162;SDS011;3623;47.098;15.446;2022-12-10T13:03:35;7.53;;;6.47;;
7162;SDS011;3623;47.098;15.446;2022-12-10T13:06:12;9.82;;;7.28;;
7162;SDS011;3623;47.098;15.446;2022-12-10T13:08:44;8.60;;;7.35;;
7162;SDS011;3623;47.098;15.446;2022-12-10T13:11:19;7.65;;;6.97;;
7162;SDS011;3623;47.098;15.446;2022-12-10T13:14:13;8.43;;;7.63;;
7162;SDS011;3623;47.098;15.446;2022-12-10T13:17:00;9.43;;;8.68;;
7162;SDS011;3623;47.098;15.446;2022-12-10T13:19:44;10.52;;;9.52;;
7162;SDS011;3623;47.098;15.446;2022-12-10T13:22:11;92.95;;;20.20;;
7162;SDS011;3623;47.098;15.446;2022-12-10T13:25:09;242.75;;;38.75;;
7162;SDS011;3623;47.098;15.446;2022-12-10T13:27:39;64.00;;;15.52;;
7162;SDS011;3623;47.098;15.446;2022-12-10T13:35:55;13.80;;;10.95;;
7162;SDS011;3623;47.098;15.446;2022-12-10T13:38:24;10.85;;;9.75;;
7162;SDS011;3623;47.098;15.446;2022-12-10T13:41:02;8.80;;;8.00;;
7162;SDS011;3623;47.098;15.446;2022-12-10T13:43:52;9.57;;;8.68;;
7162;SDS011;3623;47.098;15.446;2022-12-10T13:46:53;9.70;;;8.40;;
7162;SDS011;3623;47.098;15.446;2022-12-10T13:49:24;11.85;;;9.45;;
7162;SDS011;3623;47.098;15.446;2022-12-10T13:51:55;9.90;;;8.60;;
7162;SDS011;3623;47.098;15.446;2022-12-10T13:54:29;9.45;;;8.48;;
7162;SDS011;3623;47.098;15.446;2022-12-10T13:57:15;8.77;;;8.00;;
7162;SDS011;3623;47.098;15.446;2022-12-10T13:59:54;6.85;;;6.15;;
7162;SDS011;3623;47.098;15.446;2022-12-10T14:02:38;6.72;;;5.65;;
7162;SDS011;3623;47.098;15.446;2022-12-10T14:05:23;6.47;;;5.88;;
7162;SDS011;3623;47.098;15.446;2022-12-10T14:08:02;8.38;;;7.57;;
7162;SDS011;3623;47.098;15.446;2022-12-10T14:10:32;7.38;;;6.65;;
7162;SDS011;3623;47.098;15.446;2022-12-10T14:13:02;8.38;;;7.68;;
7162;SDS011;3623;47.098;15.446;2022-12-10T14:15:30;6.75;;;6.18;;
7162;SDS011;3623;47.098;15.446;2022-12-10T14:18:01;7.82;;;7.03;;
7162;SDS011;3623;47.098;15.446;2022-12-10T14:20:32;7.35;;;6.75;;
7162;SDS011;3623;47.098;15.446;2022-12-10T14:23:03;10.05;;;7.60;;
7162;SDS011;3623;47.098;15.446;2022-12-10T14:26:05;6.55;;;5.95;;
7162;SDS011;3623;47.098;15.446;2022-12-10T14:28:37;7.20;;;6.60;;
7162;SDS011;3623;47.098;15.446;2022-12-10T14:31:09;6.72;;;6.13;;
7162;SDS011;3623;47.098;15.446;2022-12-10T14:33:41;8.32;;;7.53;;
7162;SDS011;3623;47.098;15.446;2022-12-10T14:36:14;6.00;;;5.50;;
7162;SDS011;3623;47.098;15.446;2022-12-10T14:38:47;7.82;;;6.88;;
7162;SDS011;3623;47.098;15.446;2022-12-10T14:41:17;6.82;;;6.32;;
7162;SDS011;3623;47.098;15.446;2022-12-10T14:43:46;7.47;;;6.93;;
7162;SDS011;3623;47.098;15.446;2022-12-10T14:46:16;7.63;;;6.80;;
7162;SDS011;3623;47.098;15.446;2022-12-10T14:48:48;7.75;;;7.00;;
7162;SDS011;3623;47.098;15.446;2022-12-10T14:51:16;6.82;;;5.93;;
7162;SDS011;3623;47.098;15.446;2022-12-10T14:53:45;6.60;;;6.10;;
7162;SDS011;3623;47.098;15.446;2022-12-10T14:56:18;6.50;;;5.90;;
7162;SDS011;3623;47.098;15.446;2022-12-10T14:58:50;7.93;;;7.00;;
7162;SDS011;3623;47.098;15.446;2022-12-10T15:01:24;6.80;;;6.18;;
7162;SDS011;3623;47.098;15.446;2022-12-10T15:03:54;6.38;;;5.88;;
7162;SDS011;3623;47.098;15.446;2022-12-10T15:06:25;7.82;;;7.05;;
7162;SDS011;3623;47.098;15.446;2022-12-10T15:08:55;7.07;;;6.40;;
7162;SDS011;3623;47.098;15.446;2022-12-10T15:11:24;7.38;;;6.43;;
7162;SDS011;3623;47.098;15.446;2022-12-10T15:13:54;7.68;;;5.90;;
7162;SDS011;3623;47.098;15.446;2022-12-10T15:16:28;7.15;;;6.53;;
7162;SDS011;3623;47.098;15.446;2022-12-10T15:19:06;9.88;;;6.40;;